sensor_id;sensor_type;location;lat;lon;timestamp;temperature;humidity
4695;DHT22;2361;49.540;8.390;2023-05-07T00:02:13;18.10;99.90
4695;DHT22;2361;49.540;8.390;2023-05-07T00:04:40;18.10;99.90
4695;DHT22;2361;49.540;8.390;2023-05-07T00:07:07;18.10;99.90
4695;DHT22;2361;49.540;8.390;2023-05-07T00:09:34;18.10;99.90
4695;DHT22;2361;49.540;8.390;2023-05-07T00:12:01;18.00;99.90
4695;DHT22;2361;49.540;8.390;2023-05-07T00:14:28;18.00;99.90
4695;DHT22;2361;49.540;8.390;2023-05-07T00:16:55;18.00;99.90
4695;DHT22;2361;49.540;8.390;2023-05-07T00:19:22;18.00;99.90
4695;DHT22;2361;49.540;8.390;2023-05-07T00:21:49;17.90;99.90
4695;DHT22;2361;49.540;8.390;2023-05-07T00:24:16;17.90;99.90
4695;DHT22;2361;49.540;8.390;2023-05-07T00:26:43;17.90;99.90
4695;DHT22;2361;49.540;8.390;2023-05-07T00:29:10;17.80;99.90
4695;DHT22;2361;49.540;8.390;2023-05-07T00:31:37;17.80;99.90
4695;DHT22;2361;49.540;8.390;2023-05-07T00:34:04;17.70;99.90
4695;DHT22;2361;49.540;8.390;2023-05-07T00:36:31;17.70;99.90
4695;DHT22;2361;49.540;8.390;2023-05-07T00:39:00;17.60;99.90
4695;DHT22;2361;49.540;8.390;2023-05-07T00:41:29;17.60;99.90
4695;DHT22;2361;49.540;8.390;2023-05-07T00:43:59;17.60;99.90
4695;DHT22;2361;49.540;8.390;2023-05-07T00:46:27;17.60;99.90
4695;DHT22;2361;49.540;8.390;2023-05-07T00:48:54;17.50;99.90
4695;DHT22;2361;49.540;8.390;2023-05-07T00:53:49;17.40;99.90
4695;DHT22;2361;49.540;8.390;2023-05-07T00:56:17;17.40;99.90
4695;DHT22;2361;49.540;8.390;2023-05-07T00:58:44;17.40;99.90
4695;DHT22;2361;49.540;8.390;2023-05-07T01:01:10;17.30;99.90
4695;DHT22;2361;49.540;8.390;2023-05-07T01:03:37;17.30;99.90
4695;DHT22;2361;49.540;8.390;2023-05-07T01:06:06;17.30;99.90
4695;DHT22;2361;49.540;8.390;2023-05-07T01:08:35;17.30;99.90
4695;DHT22;2361;49.540;8.390;2023-05-07T01:11:03;17.30;99.90
4695;DHT22;2361;49.540;8.390;2023-05-07T01:13:30;17.30;99.90
4695;DHT22;2361;49.540;8.390;2023-05-07T01:15:57;17.20;99.90
4695;DHT22;2361;49.540;8.390;2023-05-07T01:18:24;17.20;99.90
4695;DHT22;2361;49.540;8.390;2023-05-07T01:20:54;17.20;99.90
4695;DHT22;2361;49.540;8.390;2023-05-07T01:23:22;17.20;99.90
4695;DHT22;2361;49.540;8.390;2023-05-07T01:25:53;17.10;99.90
4695;DHT22;2361;49.540;8.390;2023-05-07T01:28:20;17.10;99.90
4695;DHT22;2361;49.540;8.390;2023-05-07T01:30:51;17.00;99.90
4695;DHT22;2361;49.540;8.390;2023-05-07T01:33:21;17.00;99.90
4695;DHT22;2361;49.540;8.390;2023-05-07T01:35:52;17.00;99.90
4695;DHT22;2361;49.540;8.390;2023-05-07T01:38:21;17.00;99.90
4695;DHT22;2361;49.540;8.390;2023-05-07T01:40:49;16.90;99.90
4695;DHT22;2361;49.540;8.390;2023-05-07T01:43:16;16.90;99.90
4695;DHT22;2361;49.540;8.390;2023-05-07T01:45:43;16.90;99.90
4695;DHT22;2361;49.540;8.390;2023-05-07T01:48:11;16.90;99.90
4695;DHT22;2361;49.540;8.390;2023-05-07T01:50:39;16.90;99.90
4695;DHT22;2361;49.540;8.390;2023-05-07T01:53:06;16.80;99.90
4695;DHT22;2361;49.540;8.390;2023-05-07T01:55:33;16.80;99.90
4695;DHT22;2361;49.540;8.390;2023-05-07T01:58:00;16.80;99.90
4695;DHT22;2361;49.540;8.390;2023-05-07T02:00:27;16.80;99.90
4695;DHT22;2361;49.540;8.390;2023-05-07T02:02:54;16.70;99.90
4695;DHT22;2361;49.540;8.390;2023-05-07T02:05:21;16.80;99.90
4695;DHT22;2361;49.540;8.390;2023-05-07T02:07:48;16.70;99.90
4695;DHT22;2361;49.540;8.390;2023-05-07T02:10:15;16.70;99.90
4695;DHT22;2361;49.540;8.390;2023-05-07T02:12:42;16.70;99.90
4695;DHT22;2361;49.540;8.390;2023-05-07T02:15:09;16.70;99.90
4695;DHT22;2361;49.540;8.390;2023-05-07T02:17:58;16.60;99.90
4695;DHT22;2361;49.540;8.390;2023-05-07T02:20:35;16.60;99.90
4695;DHT22;2361;49.540;8.390;2023-05-07T02:23:02;16.50;99.90
4695;DHT22;2361;49.540;8.390;2023-05-07T02:25:29;16.50;99.90
4695;DHT22;2361;49.540;8.390;2023-05-07T02:27:56;16.50;99.90
4695;DHT22;2361;49.540;8.390;2023-05-07T02:30:24;16.50;99.90
4695;DHT22;2361;49.540;8.390;2023-05-07T02:32:52;16.50;99.90
4695;DHT22;2361;49.540;8.390;2023-05-07T02:35:19;16.40;99.90
4695;DHT22;2361;49.540;8.390;2023-05-07T02:37:46;16.40;99.90
4695;DHT22;2361;49.540;8.390;2023-05-07T02:40:13;16.40;99.90
4695;DHT22;2361;49.540;8.390;2023-05-07T02:42:40;16.40;99.90
4695;DHT22;2361;49.540;8.390;2023-05-07T02:45:07;16.40;99.90
4695;DHT22;2361;49.540;8.390;2023-05-07T02:47:34;16.40;99.90
4695;DHT22;2361;49.540;8.390;2023-05-07T02:50:02;16.40;99.90
4695;DHT22;2361;49.540;8.390;2023-05-07T02:52:29;16.30;99.90
4695;DHT22;2361;49.540;8.390;2023-05-07T02:54:56;16.30;99.90
4695;DHT22;2361;49.540;8.390;2023-05-07T02:57:23;16.20;99.90
4695;DHT22;2361;49.540;8.390;2023-05-07T02:59:50;16.20;99.90
4695;DHT22;2361;49.540;8.390;2023-05-07T03:02:18;16.20;99.90
4695;DHT22;2361;49.540;8.390;2023-05-07T03:04:45;16.20;99.90
4695;DHT22;2361;49.540;8.390;2023-05-07T03:07:12;16.20;99.90
4695;DHT22;2361;49.540;8.390;2023-05-07T03:09:39;16.10;99.90
4695;DHT22;2361;49.540;8.390;2023-05-07T03:12:06;16.10;99.90
4695;DHT22;2361;49.540;8.390;2023-05-07T03:14:33;16.00;99.90
4695;DHT22;2361;49.540;8.390;2023-05-07T03:17:00;16.00;99.90
4695;DHT22;2361;49.540;8.390;2023-05-07T03:19:27;16.00;99.90
4695;DHT22;2361;49.540;8.390;2023-05-07T03:21:54;15.90;99.90
4695;DHT22;2361;49.540;8.390;2023-05-07T03:24:21;15.80;99.90
4695;DHT22;2361;49.540;8.390;2023-05-07T03:26:48;15.70;99.90
4695;DHT22;2361;49.540;8.390;2023-05-07T03:29:15;15.70;99.90
4695;DHT22;2361;49.540;8.390;2023-05-07T03:31:43;15.70;99.90
4695;DHT22;2361;49.540;8.390;2023-05-07T03:34:10;15.70;99.90
4695;DHT22;2361;49.540;8.390;2023-05-07T03:36:37;15.70;99.90
4695;DHT22;2361;49.540;8.390;2023-05-07T03:39:04;15.70;99.90
4695;DHT22;2361;49.540;8.390;2023-05-07T03:41:32;15.70;99.90
4695;DHT22;2361;49.540;8.390;2023-05-07T03:43:59;15.70;99.90
4695;DHT22;2361;49.540;8.390;2023-05-07T03:46:26;15.60;99.90
4695;DHT22;2361;49.540;8.390;2023-05-07T03:48:54;15.70;99.90
4695;DHT22;2361;49.540;8.390;2023-05-07T03:51:21;15.70;99.90
4695;DHT22;2361;49.540;8.390;2023-05-07T03:53:48;15.70;99.90
4695;DHT22;2361;49.540;8.390;2023-05-07T03:56:15;15.80;99.90
4695;DHT22;2361;49.540;8.390;2023-05-07T03:58:45;15.70;99.90
4695;DHT22;2361;49.540;8.390;2023-05-07T04:01:12;15.70;99.90
4695;DHT22;2361;49.540;8.390;2023-05-07T04:03:39;15.70;99.90
4695;DHT22;2361;49.540;8.390;2023-05-07T04:06:06;15.70;99.90
4695;DHT22;2361;49.540;8.390;2023-05-07T04:08:33;15.80;99.90
4695;DHT22;2361;49.540;8.390;2023-05-07T04:11:00;15.80;99.90
4695;DHT22;2361;49.540;8.390;2023-05-07T04:13:27;15.80;99.90
4695;DHT22;2361;49.540;8.390;2023-05-07T04:15:55;15.80;99.90
4695;DHT22;2361;49.540;8.390;2023-05-07T04:18:23;15.80;99.90
4695;DHT22;2361;49.540;8.390;2023-05-07T04:20:49;15.80;99.90
4695;DHT22;2361;49.540;8.390;2023-05-07T04:23:16;15.80;99.90
4695;DHT22;2361;49.540;8.390;2023-05-07T04:25:43;15.80;99.90
4695;DHT22;2361;49.540;8.390;2023-05-07T04:28:11;15.90;99.90
4695;DHT22;2361;49.540;8.390;2023-05-07T04:30:39;15.90;99.90
4695;DHT22;2361;49.540;8.390;2023-05-07T04:33:06;15.90;99.90
4695;DHT22;2361;49.540;8.390;2023-05-07T04:35:33;15.90;99.90
4695;DHT22;2361;49.540;8.390;2023-05-07T04:38:00;15.90;99.90
4695;DHT22;2361;49.540;8.390;2023-05-07T04:40:28;15.90;99.90
4695;DHT22;2361;49.540;8.390;2023-05-07T04:42:54;16.00;99.90
4695;DHT22;2361;49.540;8.390;2023-05-07T04:45:21;16.00;99.90
4695;DHT22;2361;49.540;8.390;2023-05-07T04:47:48;16.10;99.90
4695;DHT22;2361;49.540;8.390;2023-05-07T04:50:16;16.10;99.90
4695;DHT22;2361;49.540;8.390;2023-05-07T04:52:44;16.20;99.90
4695;DHT22;2361;49.540;8.390;2023-05-07T04:55:11;16.20;99.90
4695;DHT22;2361;49.540;8.390;2023-05-07T04:57:38;16.20;99.90
4695;DHT22;2361;49.540;8.390;2023-05-07T05:00:07;16.20;99.90
4695;DHT22;2361;49.540;8.390;2023-05-07T05:02:40;16.20;99.90
4695;DHT22;2361;49.540;8.390;2023-05-07T05:05:08;16.30;99.90
4695;DHT22;2361;49.540;8.390;2023-05-07T05:07:35;16.30;99.90
4695;DHT22;2361;49.540;8.390;2023-05-07T05:10:02;16.30;99.90
4695;DHT22;2361;49.540;8.390;2023-05-07T05:12:31;16.40;99.90
4695;DHT22;2361;49.540;8.390;2023-05-07T05:14:58;16.30;99.90
4695;DHT22;2361;49.540;8.390;2023-05-07T05:17:25;16.30;99.90
4695;DHT22;2361;49.540;8.390;2023-05-07T05:19:52;16.30;99.90
4695;DHT22;2361;49.540;8.390;2023-05-07T05:22:18;16.30;99.90
4695;DHT22;2361;49.540;8.390;2023-05-07T05:24:47;16.30;99.90
4695;DHT22;2361;49.540;8.390;2023-05-07T05:27:14;16.30;99.90
4695;DHT22;2361;49.540;8.390;2023-05-07T05:29:41;16.40;99.90
4695;DHT22;2361;49.540;8.390;2023-05-07T05:32:08;16.40;99.90
4695;DHT22;2361;49.540;8.390;2023-05-07T05:34:35;16.50;99.90
4695;DHT22;2361;49.540;8.390;2023-05-07T05:37:02;16.60;99.90
4695;DHT22;2361;49.540;8.390;2023-05-07T05:39:28;16.70;99.90
4695;DHT22;2361;49.540;8.390;2023-05-07T05:41:55;16.80;99.90
4695;DHT22;2361;49.540;8.390;2023-05-07T05:44:22;16.90;99.90
4695;DHT22;2361;49.540;8.390;2023-05-07T05:46:49;17.00;99.90
4695;DHT22;2361;49.540;8.390;2023-05-07T05:49:16;17.00;99.90
4695;DHT22;2361;49.540;8.390;2023-05-07T05:51:43;17.10;99.90
4695;DHT22;2361;49.540;8.390;2023-05-07T05:54:10;17.20;99.90
4695;DHT22;2361;49.540;8.390;2023-05-07T05:56:37;17.30;99.90
4695;DHT22;2361;49.540;8.390;2023-05-07T05:59:04;17.30;99.90
4695;DHT22;2361;49.540;8.390;2023-05-07T06:01:32;17.40;99.90
4695;DHT22;2361;49.540;8.390;2023-05-07T06:03:59;17.50;99.90
4695;DHT22;2361;49.540;8.390;2023-05-07T06:06:26;17.70;99.90
4695;DHT22;2361;49.540;8.390;2023-05-07T06:08:53;17.90;99.90
4695;DHT22;2361;49.540;8.390;2023-05-07T06:11:20;18.10;99.90
4695;DHT22;2361;49.540;8.390;2023-05-07T06:13:47;18.30;99.90
4695;DHT22;2361;49.540;8.390;2023-05-07T06:16:14;18.50;99.90
4695;DHT22;2361;49.540;8.390;2023-05-07T06:18:41;18.60;99.90
4695;DHT22;2361;49.540;8.390;2023-05-07T06:21:09;18.70;99.90
4695;DHT22;2361;49.540;8.390;2023-05-07T06:23:36;18.90;99.90
4695;DHT22;2361;49.540;8.390;2023-05-07T06:26:03;19.00;99.90
4695;DHT22;2361;49.540;8.390;2023-05-07T06:28:30;19.10;99.90
4695;DHT22;2361;49.540;8.390;2023-05-07T06:31:19;19.20;99.90
4695;DHT22;2361;49.540;8.390;2023-05-07T06:33:47;19.40;99.90
4695;DHT22;2361;49.540;8.390;2023-05-07T06:36:14;19.40;99.90
4695;DHT22;2361;49.540;8.390;2023-05-07T06:38:41;19.30;99.90
4695;DHT22;2361;49.540;8.390;2023-05-07T06:41:08;19.10;99.90
4695;DHT22;2361;49.540;8.390;2023-05-07T06:43:35;19.00;99.90
4695;DHT22;2361;49.540;8.390;2023-05-07T06:46:02;18.90;99.90
4695;DHT22;2361;49.540;8.390;2023-05-07T06:48:32;18.90;99.90
4695;DHT22;2361;49.540;8.390;2023-05-07T06:51:01;18.90;99.90
4695;DHT22;2361;49.540;8.390;2023-05-07T06:53:29;19.00;99.90
4695;DHT22;2361;49.540;8.390;2023-05-07T06:55:57;19.10;99.90
4695;DHT22;2361;49.540;8.390;2023-05-07T06:58:24;19.20;99.90
4695;DHT22;2361;49.540;8.390;2023-05-07T07:00:51;19.40;99.90
4695;DHT22;2361;49.540;8.390;2023-05-07T07:03:17;19.50;99.90
4695;DHT22;2361;49.540;8.390;2023-05-07T07:05:45;19.50;99.90
4695;DHT22;2361;49.540;8.390;2023-05-07T07:08:12;19.50;99.90
4695;DHT22;2361;49.540;8.390;2023-05-07T07:10:39;19.70;99.90
4695;DHT22;2361;49.540;8.390;2023-05-07T07:13:06;19.90;99.90
4695;DHT22;2361;49.540;8.390;2023-05-07T07:15:33;20.00;99.90
4695;DHT22;2361;49.540;8.390;2023-05-07T07:18:03;20.00;99.90
4695;DHT22;2361;49.540;8.390;2023-05-07T07:20:30;20.00;99.90
4695;DHT22;2361;49.540;8.390;2023-05-07T07:22:59;20.10;99.90
4695;DHT22;2361;49.540;8.390;2023-05-07T07:25:26;20.10;99.90
4695;DHT22;2361;49.540;8.390;2023-05-07T07:27:55;20.20;99.90
4695;DHT22;2361;49.540;8.390;2023-05-07T07:30:22;20.20;99.90
4695;DHT22;2361;49.540;8.390;2023-05-07T07:32:48;20.30;99.90
4695;DHT22;2361;49.540;8.390;2023-05-07T07:35:15;20.40;99.90
4695;DHT22;2361;49.540;8.390;2023-05-07T07:37:42;20.40;99.90
4695;DHT22;2361;49.540;8.390;2023-05-07T07:40:10;20.50;99.90
4695;DHT22;2361;49.540;8.390;2023-05-07T07:42:39;20.40;99.90
4695;DHT22;2361;49.540;8.390;2023-05-07T07:45:07;20.50;99.90
4695;DHT22;2361;49.540;8.390;2023-05-07T07:47:34;20.40;99.90
4695;DHT22;2361;49.540;8.390;2023-05-07T07:50:02;20.40;99.90
4695;DHT22;2361;49.540;8.390;2023-05-07T07:52:29;20.30;99.90
4695;DHT22;2361;49.540;8.390;2023-05-07T07:54:56;20.30;99.90
4695;DHT22;2361;49.540;8.390;2023-05-07T07:57:23;20.20;99.90
4695;DHT22;2361;49.540;8.390;2023-05-07T07:59:53;20.10;99.90
4695;DHT22;2361;49.540;8.390;2023-05-07T08:02:20;20.00;99.90
4695;DHT22;2361;49.540;8.390;2023-05-07T08:04:47;19.90;99.90
4695;DHT22;2361;49.540;8.390;2023-05-07T08:07:14;20.00;99.90
4695;DHT22;2361;49.540;8.390;2023-05-07T08:09:41;20.00;99.90
4695;DHT22;2361;49.540;8.390;2023-05-07T08:12:11;20.10;99.90
4695;DHT22;2361;49.540;8.390;2023-05-07T08:14:38;20.20;99.90
4695;DHT22;2361;49.540;8.390;2023-05-07T08:17:05;20.20;99.90
4695;DHT22;2361;49.540;8.390;2023-05-07T08:19:33;20.30;99.90
4695;DHT22;2361;49.540;8.390;2023-05-07T08:22:00;20.50;99.90
4695;DHT22;2361;49.540;8.390;2023-05-07T08:24:27;20.50;99.90
4695;DHT22;2361;49.540;8.390;2023-05-07T08:26:57;20.60;99.90
4695;DHT22;2361;49.540;8.390;2023-05-07T08:29:24;20.70;99.90
4695;DHT22;2361;49.540;8.390;2023-05-07T08:31:54;20.80;99.90
4695;DHT22;2361;49.540;8.390;2023-05-07T08:34:24;20.90;99.90
4695;DHT22;2361;49.540;8.390;2023-05-07T08:36:51;20.90;99.90
4695;DHT22;2361;49.540;8.390;2023-05-07T08:39:20;20.90;99.90
4695;DHT22;2361;49.540;8.390;2023-05-07T08:41:48;21.00;99.90
4695;DHT22;2361;49.540;8.390;2023-05-07T08:44:17;21.10;99.90
4695;DHT22;2361;49.540;8.390;2023-05-07T08:46:52;21.20;99.90
4695;DHT22;2361;49.540;8.390;2023-05-07T08:49:22;21.30;99.90
4695;DHT22;2361;49.540;8.390;2023-05-07T08:51:49;21.30;99.90
4695;DHT22;2361;49.540;8.390;2023-05-07T08:54:16;21.40;99.90
4695;DHT22;2361;49.540;8.390;2023-05-07T08:56:44;21.50;99.90
4695;DHT22;2361;49.540;8.390;2023-05-07T08:59:12;21.70;99.90
4695;DHT22;2361;49.540;8.390;2023-05-07T09:01:39;22.00;99.90
4695;DHT22;2361;49.540;8.390;2023-05-07T09:04:07;22.40;99.90
4695;DHT22;2361;49.540;8.390;2023-05-07T09:06:34;23.00;99.90
4695;DHT22;2361;49.540;8.390;2023-05-07T09:09:01;23.80;99.90
4695;DHT22;2361;49.540;8.390;2023-05-07T09:11:31;24.30;99.90
4695;DHT22;2361;49.540;8.390;2023-05-07T09:13:58;25.40;99.90
4695;DHT22;2361;49.540;8.390;2023-05-07T09:16:29;26.40;99.00
4695;DHT22;2361;49.540;8.390;2023-05-07T09:18:58;27.60;96.60
4695;DHT22;2361;49.540;8.390;2023-05-07T09:21:26;29.00;93.40
4695;DHT22;2361;49.540;8.390;2023-05-07T09:23:55;30.80;87.80
4695;DHT22;2361;49.540;8.390;2023-05-07T09:26:23;32.20;80.10
4695;DHT22;2361;49.540;8.390;2023-05-07T09:28:51;33.60;72.90
4695;DHT22;2361;49.540;8.390;2023-05-07T09:31:18;34.30;69.30
4695;DHT22;2361;49.540;8.390;2023-05-07T09:33:47;34.70;65.90
4695;DHT22;2361;49.540;8.390;2023-05-07T09:36:14;34.30;63.30
4695;DHT22;2361;49.540;8.390;2023-05-07T09:38:41;34.10;63.10
4695;DHT22;2361;49.540;8.390;2023-05-07T09:41:12;34.80;61.70
4695;DHT22;2361;49.540;8.390;2023-05-07T09:43:40;35.90;60.10
4695;DHT22;2361;49.540;8.390;2023-05-07T09:46:12;36.90;58.00
4695;DHT22;2361;49.540;8.390;2023-05-07T09:48:43;37.60;56.20
4695;DHT22;2361;49.540;8.390;2023-05-07T09:51:34;37.30;56.00
4695;DHT22;2361;49.540;8.390;2023-05-07T09:54:06;36.80;54.60
4695;DHT22;2361;49.540;8.390;2023-05-07T09:56:34;36.00;55.10
4695;DHT22;2361;49.540;8.390;2023-05-07T09:59:05;35.90;55.40
4695;DHT22;2361;49.540;8.390;2023-05-07T10:01:33;36.40;54.60
4695;DHT22;2361;49.540;8.390;2023-05-07T10:04:03;36.40;54.40
4695;DHT22;2361;49.540;8.390;2023-05-07T10:06:30;36.70;54.40
4695;DHT22;2361;49.540;8.390;2023-05-07T10:08:59;36.20;54.00
4695;DHT22;2361;49.540;8.390;2023-05-07T10:11:26;36.00;54.30
4695;DHT22;2361;49.540;8.390;2023-05-07T10:13:53;35.60;54.40
4695;DHT22;2361;49.540;8.390;2023-05-07T10:16:23;35.10;54.10
4695;DHT22;2361;49.540;8.390;2023-05-07T10:18:51;34.60;55.30
4695;DHT22;2361;49.540;8.390;2023-05-07T10:21:20;33.30;57.10
4695;DHT22;2361;49.540;8.390;2023-05-07T10:24:03;32.20;59.00
4695;DHT22;2361;49.540;8.390;2023-05-07T10:26:45;31.50;60.00
4695;DHT22;2361;49.540;8.390;2023-05-07T10:35:09;29.60;64.20
4695;DHT22;2361;49.540;8.390;2023-05-07T10:37:39;28.90;64.50
4695;DHT22;2361;49.540;8.390;2023-05-07T10:40:09;28.30;65.60
4695;DHT22;2361;49.540;8.390;2023-05-07T10:42:36;28.00;67.20
4695;DHT22;2361;49.540;8.390;2023-05-07T10:45:14;27.60;67.80
4695;DHT22;2361;49.540;8.390;2023-05-07T10:48:14;27.10;68.80
4695;DHT22;2361;49.540;8.390;2023-05-07T10:51:18;26.90;71.30
4695;DHT22;2361;49.540;8.390;2023-05-07T10:53:47;26.60;72.60
4695;DHT22;2361;49.540;8.390;2023-05-07T10:58:44;26.20;74.10
4695;DHT22;2361;49.540;8.390;2023-05-07T11:01:11;26.20;74.90
4695;DHT22;2361;49.540;8.390;2023-05-07T11:04:15;26.20;74.80
4695;DHT22;2361;49.540;8.390;2023-05-07T11:06:42;26.20;74.50
4695;DHT22;2361;49.540;8.390;2023-05-07T11:15:06;26.20;75.60
4695;DHT22;2361;49.540;8.390;2023-05-07T11:17:35;26.10;74.70
4695;DHT22;2361;49.540;8.390;2023-05-07T11:20:44;26.10;75.60
4695;DHT22;2361;49.540;8.390;2023-05-07T11:28:40;25.90;76.00
4695;DHT22;2361;49.540;8.390;2023-05-07T11:31:09;25.80;76.90
4695;DHT22;2361;49.540;8.390;2023-05-07T11:33:37;25.90;77.30
4695;DHT22;2361;49.540;8.390;2023-05-07T11:36:05;25.90;78.10
4695;DHT22;2361;49.540;8.390;2023-05-07T11:38:36;25.90;77.80
4695;DHT22;2361;49.540;8.390;2023-05-07T11:41:04;25.90;78.50
4695;DHT22;2361;49.540;8.390;2023-05-07T11:43:34;25.90;79.60
4695;DHT22;2361;49.540;8.390;2023-05-07T11:46:11;25.80;79.70
4695;DHT22;2361;49.540;8.390;2023-05-07T11:48:39;25.80;79.80
4695;DHT22;2361;49.540;8.390;2023-05-07T11:51:07;25.70;79.60
4695;DHT22;2361;49.540;8.390;2023-05-07T11:53:37;25.60;79.30
4695;DHT22;2361;49.540;8.390;2023-05-07T11:56:11;25.60;78.60
4695;DHT22;2361;49.540;8.390;2023-05-07T11:58:43;25.50;78.00
4695;DHT22;2361;49.540;8.390;2023-05-07T12:01:11;25.50;77.80
4695;DHT22;2361;49.540;8.390;2023-05-07T12:03:43;25.50;79.90
4695;DHT22;2361;49.540;8.390;2023-05-07T12:06:14;25.50;80.30
4695;DHT22;2361;49.540;8.390;2023-05-07T12:08:43;25.50;80.30
4695;DHT22;2361;49.540;8.390;2023-05-07T12:11:24;25.50;79.80
4695;DHT22;2361;49.540;8.390;2023-05-07T12:13:54;25.50;81.10
4695;DHT22;2361;49.540;8.390;2023-05-07T12:16:24;25.40;79.70
4695;DHT22;2361;49.540;8.390;2023-05-07T12:18:52;25.40;80.10
4695;DHT22;2361;49.540;8.390;2023-05-07T12:21:21;25.30;80.70
4695;DHT22;2361;49.540;8.390;2023-05-07T12:23:48;25.30;80.40
4695;DHT22;2361;49.540;8.390;2023-05-07T12:26:15;25.30;78.50
4695;DHT22;2361;49.540;8.390;2023-05-07T12:28:42;25.30;77.50
4695;DHT22;2361;49.540;8.390;2023-05-07T12:31:09;25.40;77.10
4695;DHT22;2361;49.540;8.390;2023-05-07T12:33:37;25.40;77.70
4695;DHT22;2361;49.540;8.390;2023-05-07T12:36:06;25.50;76.60
4695;DHT22;2361;49.540;8.390;2023-05-07T12:38:36;25.50;75.70
4695;DHT22;2361;49.540;8.390;2023-05-07T12:41:09;25.50;75.90
4695;DHT22;2361;49.540;8.390;2023-05-07T12:43:37;25.40;75.50
4695;DHT22;2361;49.540;8.390;2023-05-07T12:46:06;25.40;75.50
4695;DHT22;2361;49.540;8.390;2023-05-07T12:48:36;25.40;75.80
4695;DHT22;2361;49.540;8.390;2023-05-07T12:51:07;25.50;76.70
4695;DHT22;2361;49.540;8.390;2023-05-07T12:53:40;25.60;76.80
4695;DHT22;2361;49.540;8.390;2023-05-07T12:56:10;25.60;76.90
4695;DHT22;2361;49.540;8.390;2023-05-07T12:58:37;25.70;77.20
4695;DHT22;2361;49.540;8.390;2023-05-07T13:01:08;25.70;77.20
4695;DHT22;2361;49.540;8.390;2023-05-07T13:03:37;25.70;77.00
4695;DHT22;2361;49.540;8.390;2023-05-07T13:06:05;25.80;77.20
4695;DHT22;2361;49.540;8.390;2023-05-07T13:08:38;25.80;77.40
4695;DHT22;2361;49.540;8.390;2023-05-07T13:11:12;25.70;77.90
4695;DHT22;2361;49.540;8.390;2023-05-07T13:13:40;25.70;77.90
4695;DHT22;2361;49.540;8.390;2023-05-07T13:16:09;25.50;79.10
4695;DHT22;2361;49.540;8.390;2023-05-07T13:18:38;25.40;79.10
4695;DHT22;2361;49.540;8.390;2023-05-07T13:21:06;25.20;80.80
4695;DHT22;2361;49.540;8.390;2023-05-07T13:23:33;25.00;80.60
4695;DHT22;2361;49.540;8.390;2023-05-07T13:26:01;24.90;82.00
4695;DHT22;2361;49.540;8.390;2023-05-07T13:28:34;24.80;83.90
4695;DHT22;2361;49.540;8.390;2023-05-07T13:31:01;24.60;85.00
4695;DHT22;2361;49.540;8.390;2023-05-07T13:33:29;24.60;83.20
4695;DHT22;2361;49.540;8.390;2023-05-07T13:35:56;24.40;83.40
4695;DHT22;2361;49.540;8.390;2023-05-07T13:38:23;24.20;84.10
4695;DHT22;2361;49.540;8.390;2023-05-07T13:40:50;23.90;84.90
4695;DHT22;2361;49.540;8.390;2023-05-07T13:43:17;23.80;87.10
4695;DHT22;2361;49.540;8.390;2023-05-07T13:45:45;23.60;88.40
4695;DHT22;2361;49.540;8.390;2023-05-07T13:48:12;23.50;90.30
4695;DHT22;2361;49.540;8.390;2023-05-07T13:50:39;23.30;92.40
4695;DHT22;2361;49.540;8.390;2023-05-07T13:53:07;23.00;93.40
4695;DHT22;2361;49.540;8.390;2023-05-07T13:55:34;22.70;95.60
4695;DHT22;2361;49.540;8.390;2023-05-07T13:58:02;22.50;98.10
4695;DHT22;2361;49.540;8.390;2023-05-07T14:00:32;22.40;99.90
4695;DHT22;2361;49.540;8.390;2023-05-07T14:02:59;22.30;99.90
4695;DHT22;2361;49.540;8.390;2023-05-07T14:05:26;22.10;99.90
4695;DHT22;2361;49.540;8.390;2023-05-07T14:07:56;22.00;99.90
4695;DHT22;2361;49.540;8.390;2023-05-07T14:10:24;21.90;99.90
4695;DHT22;2361;49.540;8.390;2023-05-07T14:12:51;21.80;99.90
4695;DHT22;2361;49.540;8.390;2023-05-07T14:15:19;21.80;99.90
4695;DHT22;2361;49.540;8.390;2023-05-07T14:17:46;21.70;99.90
4695;DHT22;2361;49.540;8.390;2023-05-07T14:20:13;21.60;99.90
4695;DHT22;2361;49.540;8.390;2023-05-07T14:22:41;21.70;99.90
4695;DHT22;2361;49.540;8.390;2023-05-07T14:25:08;21.60;99.90
4695;DHT22;2361;49.540;8.390;2023-05-07T14:27:39;21.60;99.90
4695;DHT22;2361;49.540;8.390;2023-05-07T14:30:07;21.50;99.90
4695;DHT22;2361;49.540;8.390;2023-05-07T14:32:34;21.40;99.90
4695;DHT22;2361;49.540;8.390;2023-05-07T14:35:01;21.30;99.90
4695;DHT22;2361;49.540;8.390;2023-05-07T14:37:28;21.30;99.90
4695;DHT22;2361;49.540;8.390;2023-05-07T14:39:55;21.30;99.90
4695;DHT22;2361;49.540;8.390;2023-05-07T14:42:22;21.20;99.90
4695;DHT22;2361;49.540;8.390;2023-05-07T14:44:49;21.20;99.90
4695;DHT22;2361;49.540;8.390;2023-05-07T14:47:16;21.10;99.90
4695;DHT22;2361;49.540;8.390;2023-05-07T14:49:45;21.10;99.90
4695;DHT22;2361;49.540;8.390;2023-05-07T14:52:12;20.90;99.90
4695;DHT22;2361;49.540;8.390;2023-05-07T14:54:39;20.70;99.90
4695;DHT22;2361;49.540;8.390;2023-05-07T14:57:08;20.50;99.90
4695;DHT22;2361;49.540;8.390;2023-05-07T14:59:37;20.40;99.90
4695;DHT22;2361;49.540;8.390;2023-05-07T15:02:05;20.20;99.90
4695;DHT22;2361;49.540;8.390;2023-05-07T15:04:34;20.10;99.90
4695;DHT22;2361;49.540;8.390;2023-05-07T15:07:01;20.10;99.90
4695;DHT22;2361;49.540;8.390;2023-05-07T15:09:29;20.10;99.90
4695;DHT22;2361;49.540;8.390;2023-05-07T15:11:56;20.10;99.90
4695;DHT22;2361;49.540;8.390;2023-05-07T15:14:23;20.10;99.90
4695;DHT22;2361;49.540;8.390;2023-05-07T15:16:50;19.90;99.90
4695;DHT22;2361;49.540;8.390;2023-05-07T15:19:17;19.80;99.90
4695;DHT22;2361;49.540;8.390;2023-05-07T15:21:44;19.60;99.90
4695;DHT22;2361;49.540;8.390;2023-05-07T15:24:11;19.50;99.90
4695;DHT22;2361;49.540;8.390;2023-05-07T15:26:38;19.20;99.90
4695;DHT22;2361;49.540;8.390;2023-05-07T15:29:05;19.10;99.90
4695;DHT22;2361;49.540;8.390;2023-05-07T15:31:36;19.00;99.90
4695;DHT22;2361;49.540;8.390;2023-05-07T15:34:06;18.90;99.90
4695;DHT22;2361;49.540;8.390;2023-05-07T15:36:33;18.80;99.90
4695;DHT22;2361;49.540;8.390;2023-05-07T15:39:00;18.80;99.90
4695;DHT22;2361;49.540;8.390;2023-05-07T15:41:29;18.80;99.90
4695;DHT22;2361;49.540;8.390;2023-05-07T15:43:56;18.80;99.90
4695;DHT22;2361;49.540;8.390;2023-05-07T15:46:24;18.70;99.90
4695;DHT22;2361;49.540;8.390;2023-05-07T15:48:52;18.70;99.90
4695;DHT22;2361;49.540;8.390;2023-05-07T15:51:20;18.70;99.90
4695;DHT22;2361;49.540;8.390;2023-05-07T15:53:48;18.70;99.90
4695;DHT22;2361;49.540;8.390;2023-05-07T15:56:15;18.80;99.90
4695;DHT22;2361;49.540;8.390;2023-05-07T15:58:42;18.60;99.90
4695;DHT22;2361;49.540;8.390;2023-05-07T16:01:09;18.50;99.90
4695;DHT22;2361;49.540;8.390;2023-05-07T16:03:36;18.40;99.90
4695;DHT22;2361;49.540;8.390;2023-05-07T16:06:04;18.40;99.90
4695;DHT22;2361;49.540;8.390;2023-05-07T16:08:32;18.40;99.90
4695;DHT22;2361;49.540;8.390;2023-05-07T16:10:59;18.40;99.90
4695;DHT22;2361;49.540;8.390;2023-05-07T16:13:26;18.40;99.90
4695;DHT22;2361;49.540;8.390;2023-05-07T16:15:57;18.40;99.90
4695;DHT22;2361;49.540;8.390;2023-05-07T16:18:24;18.40;99.90
4695;DHT22;2361;49.540;8.390;2023-05-07T16:20:52;18.40;99.90
4695;DHT22;2361;49.540;8.390;2023-05-07T16:23:20;18.40;99.90
4695;DHT22;2361;49.540;8.390;2023-05-07T16:25:47;18.40;99.90
4695;DHT22;2361;49.540;8.390;2023-05-07T16:28:15;18.40;99.90
4695;DHT22;2361;49.540;8.390;2023-05-07T16:30:42;18.30;99.90
4695;DHT22;2361;49.540;8.390;2023-05-07T16:33:09;18.30;99.90